Sterling, IL

10:40 PM CDT on September 02, 2014 (GMT -0500)
Tri-Township | Change Station
CLOSE
Current Station
Airport
Location: Savanna,
Elevation: 617 ft
Nearby Weather Stations

Elev 617 ft 42.05 °N, 90.11 °W | Updated 5 minutes ago

Clear
Clear
63 °F
Feels Like 63 °F
N
0
Wind Variable Wind from North

Today
High -- | Low -- °F
--% Chance of Precip.
Yesterday
High -- | Low -- °F
Precip. -- in
6:25 AM 7:30 PM
First Quarter, 58% visible
Pressure 29.96 in
Visibility 10.0 miles
Clouds Clear
Dew Point 61 °F
Humidity 93%
Rainfall 0.69 in
Snow Depth Not available.
UV 0 out of 12
Pollen 9.40 out of 12
Air Quality Not available.
Flu Activity Not available.
METAR KSFY 030335Z AUTO 00000KT 10SM CLR 17/16 A2996 RMK AO2 T01730161

More Conditions Fewer Conditions

Pressure 29.96 in
Visibility 10.0 miles
Clouds Clear
Dew Point 61 °F
Humidity 93%
Rainfall 0.69 in
Snow Depth Not available.
UV 0 out of 12
Pollen 9.40 out of 12
Air Quality Not available.
Flu Activity Not available.
METAR KSFY 030335Z AUTO 00000KT 10SM CLR 17/16 A2996 RMK AO2 T01730161

More Conditions Fewer Conditions

10-Day Weather Forecast

Almanac

Astronomy

Sep. 02, 2014 Rise Set
Actual Time 6:25 AM CDT 7:30 PM CDT
Civil Twilight 5:57 AM CDT 7:59 PM CDT
Nautical Twilight 5:23 AM CDT 8:33 PM CDT
Astronomical Twilight 4:47 AM CDT 9:08 PM CDT
Moon 2:16 PM CDT (9/2) No Moon Set
Length of Visible Light 14h 01m
Length of Day
13h 04m
Tomorrow will be 2m 42s shorter.
First Quarter, 58% of the Moon is Illuminated
Today
First Quarter
Sep 8
Full
Sep 15
Last Quarter
Sep 24
New
Oct 1
First Quarter

Today's Extremes

State Highs State Lows

Community

WunderPhotos

Upload Photos

1,749,867 photos uploaded!

WunderBlogs® & News

Nearby

Snow Depth

Station Depth Elevation
No new snow has been reported.

Earthquake Activity

City Distance Mag. Time & Date
No recent earthquake activity has been reported nearby.
Minimum magnitude displayed is 2.5.

Coastal Water Temperatures

Place Temperature
No Stations Reporting

Nearby Weather Stations